sensor_id;sensor_type;location;lat;lon;timestamp;pressure;altitude;pressure_sealevel;temperature;humidity
22181;BME280;11256;50.830;12.834;2022-10-19T00:02:35;98678.44;;;15.26;69.74
22181;BME280;11256;50.830;12.834;2022-10-19T00:07:36;98639.88;;;14.99;69.70
22181;BME280;11256;50.830;12.834;2022-10-19T00:12:36;98651.09;;;14.97;69.68
22181;BME280;11256;50.830;12.834;2022-10-19T00:17:37;98666.66;;;14.92;69.97
22181;BME280;11256;50.830;12.834;2022-10-19T00:22:37;98668.41;;;14.83;69.94
22181;BME280;11256;50.830;12.834;2022-10-19T00:27:38;98675.00;;;14.77;70.26
22181;BME280;11256;50.830;12.834;2022-10-19T00:32:38;98676.03;;;14.81;69.96
22181;BME280;11256;50.830;12.834;2022-10-19T00:37:39;98663.56;;;14.70;69.71
22181;BME280;11256;50.830;12.834;2022-10-19T00:42:39;98677.16;;;14.75;69.74
22181;BME280;11256;50.830;12.834;2022-10-19T00:47:41;98664.13;;;14.67;69.96
22181;BME280;11256;50.830;12.834;2022-10-19T00:52:42;98675.03;;;14.67;69.86
22181;BME280;11256;50.830;12.834;2022-10-19T00:57:43;98673.97;;;14.63;69.84
22181;BME280;11256;50.830;12.834;2022-10-19T01:02:45;98656.56;;;14.54;69.88
22181;BME280;11256;50.830;12.834;2022-10-19T01:07:45;98657.13;;;14.51;69.76
22181;BME280;11256;50.830;12.834;2022-10-19T01:12:57;98658.25;;;14.45;69.98
22181;BME280;11256;50.830;12.834;2022-10-19T01:29:21;98628.63;;;14.18;69.95
22181;BME280;11256;50.830;12.834;2022-10-19T01:34:39;98620.22;;;14.10;69.93
22181;BME280;11256;50.830;12.834;2022-10-19T01:39:49;98646.34;;;14.16;70.17
22181;BME280;11256;50.830;12.834;2022-10-19T01:44:58;98595.50;;;13.91;70.13
22181;BME280;11256;50.830;12.834;2022-10-19T01:50:14;98645.84;;;14.14;70.05
22181;BME280;11256;50.830;12.834;2022-10-19T01:55:17;98625.16;;;14.03;70.04
22181;BME280;11256;50.830;12.834;2022-10-19T02:00:19;98627.91;;;13.98;70.27
22181;BME280;11256;50.830;12.834;2022-10-19T02:05:27;98627.38;;;13.96;70.37
22181;BME280;11256;50.830;12.834;2022-10-19T02:10:30;98625.19;;;13.93;70.28
22181;BME280;11256;50.830;12.834;2022-10-19T02:15:35;98620.88;;;13.87;70.38
22181;BME280;11256;50.830;12.834;2022-10-19T02:20:36;98616.53;;;13.81;70.43
22181;BME280;11256;50.830;12.834;2022-10-19T02:25:37;98617.66;;;13.75;70.25
22181;BME280;11256;50.830;12.834;2022-10-19T02:30:37;98631.81;;;13.77;70.58
22181;BME280;11256;50.830;12.834;2022-10-19T02:35:38;98625.00;;;13.69;70.33
22181;BME280;11256;50.830;12.834;2022-10-19T02:40:42;98644.31;;;13.78;70.40
22181;BME280;11256;50.830;12.834;2022-10-19T02:45:51;98649.81;;;13.73;70.27
22181;BME280;11256;50.830;12.834;2022-10-19T02:50:54;98644.38;;;13.68;69.89
22181;BME280;11256;50.830;12.834;2022-10-19T02:55:54;98638.66;;;13.64;70.26
22181;BME280;11256;50.830;12.834;2022-10-19T03:00:54;98648.22;;;13.62;70.42
22181;BME280;11256;50.830;12.834;2022-10-19T03:05:55;98638.94;;;13.58;70.39
22181;BME280;11256;50.830;12.834;2022-10-19T03:10:57;98633.50;;;13.58;70.70
22181;BME280;11256;50.830;12.834;2022-10-19T03:16:05;98615.56;;;13.47;70.45
22181;BME280;11256;50.830;12.834;2022-10-19T03:21:08;98617.44;;;13.51;70.60
22181;BME280;11256;50.830;12.834;2022-10-19T03:26:13;98615.81;;;13.50;70.52
22181;BME280;11256;50.830;12.834;2022-10-19T03:31:14;98615.56;;;13.47;70.49
22181;BME280;11256;50.830;12.834;2022-10-19T03:36:21;98609.56;;;13.45;70.65
22181;BME280;11256;50.830;12.834;2022-10-19T03:41:23;98608.50;;;13.36;70.65
22181;BME280;11256;50.830;12.834;2022-10-19T03:46:24;98594.09;;;13.20;70.61
22181;BME280;11256;50.830;12.834;2022-10-19T03:51:26;98621.03;;;13.27;70.72
22181;BME280;11256;50.830;12.834;2022-10-19T03:56:29;98622.13;;;13.21;70.64
22181;BME280;11256;50.830;12.834;2022-10-19T04:01:32;98622.41;;;13.14;70.66
22181;BME280;11256;50.830;12.834;2022-10-19T04:06:36;98628.66;;;13.15;70.58
22181;BME280;11256;50.830;12.834;2022-10-19T04:11:37;98640.09;;;13.12;70.71
22181;BME280;11256;50.830;12.834;2022-10-19T04:16:38;98647.19;;;13.08;70.85
22181;BME280;11256;50.830;12.834;2022-10-19T04:21:38;98639.28;;;12.96;70.40
22181;BME280;11256;50.830;12.834;2022-10-19T04:26:41;98657.50;;;13.16;70.41
22181;BME280;11256;50.830;12.834;2022-10-19T04:31:42;98650.97;;;13.07;70.46
22181;BME280;11256;50.830;12.834;2022-10-19T04:36:43;98656.41;;;13.12;70.54
22181;BME280;11256;50.830;12.834;2022-10-19T04:41:44;98654.53;;;13.07;70.61
22181;BME280;11256;50.830;12.834;2022-10-19T04:46:44;98666.25;;;13.08;70.45
22181;BME280;11256;50.830;12.834;2022-10-19T04:51:45;98663.78;;;13.06;70.36
22181;BME280;11256;50.830;12.834;2022-10-19T04:56:46;98650.44;;;13.05;69.98
22181;BME280;11256;50.830;12.834;2022-10-19T05:01:47;98665.16;;;13.04;70.36
22181;BME280;11256;50.830;12.834;2022-10-19T05:06:47;98679.28;;;13.11;70.15
22181;BME280;11256;50.830;12.834;2022-10-19T05:11:48;98665.94;;;13.04;70.18
22181;BME280;11256;50.830;12.834;2022-10-19T05:16:49;98661.88;;;12.97;70.36
22181;BME280;11256;50.830;12.834;2022-10-19T05:21:50;98672.78;;;12.97;70.35
22181;BME280;11256;50.830;12.834;2022-10-19T05:26:50;98677.13;;;12.98;70.65
22181;BME280;11256;50.830;12.834;2022-10-19T05:31:51;98676.03;;;13.04;70.22
22181;BME280;11256;50.830;12.834;2022-10-19T05:36:54;98649.34;;;12.86;70.33
22181;BME280;11256;50.830;12.834;2022-10-19T05:41:54;98672.47;;;12.88;70.51
22181;BME280;11256;50.830;12.834;2022-10-19T05:46:55;98663.47;;;12.83;69.99
22181;BME280;11256;50.830;12.834;2022-10-19T05:51:55;98673.81;;;12.86;70.26
22181;BME280;11256;50.830;12.834;2022-10-19T05:56:55;98687.41;;;12.81;70.25
22181;BME280;11256;50.830;12.834;2022-10-19T06:01:56;98693.38;;;12.78;70.44
22181;BME280;11256;50.830;12.834;2022-10-19T06:06:56;98695.56;;;12.76;70.25
22181;BME280;11256;50.830;12.834;2022-10-19T06:11:56;98695.56;;;12.76;70.70
22181;BME280;11256;50.830;12.834;2022-10-19T06:16:57;98703.16;;;12.74;70.68
22181;BME280;11256;50.830;12.834;2022-10-19T06:21:57;98703.72;;;12.71;70.67
22181;BME280;11256;50.830;12.834;2022-10-19T06:26:57;98707.53;;;12.70;70.24
22181;BME280;11256;50.830;12.834;2022-10-19T06:31:58;98717.06;;;12.72;70.56
22181;BME280;11256;50.830;12.834;2022-10-19T06:36:59;98711.31;;;12.69;70.54
22181;BME280;11256;50.830;12.834;2022-10-19T06:41:59;98711.31;;;12.69;70.70
22181;BME280;11256;50.830;12.834;2022-10-19T06:47:00;98724.91;;;12.74;70.55
22181;BME280;11256;50.830;12.834;2022-10-19T06:52:01;98721.66;;;12.72;70.55
22181;BME280;11256;50.830;12.834;2022-10-19T06:57:01;98728.72;;;12.73;70.73
22181;BME280;11256;50.830;12.834;2022-10-19T07:02:01;98726.56;;;12.75;70.93
22181;BME280;11256;50.830;12.834;2022-10-19T07:07:02;98738.00;;;12.82;70.84
22181;BME280;11256;50.830;12.834;2022-10-19T07:12:03;98732.56;;;12.82;70.71
22181;BME280;11256;50.830;12.834;2022-10-19T07:17:07;98725.78;;;12.84;70.75
22181;BME280;11256;50.830;12.834;2022-10-19T07:22:09;98732.31;;;12.88;70.96
22181;BME280;11256;50.830;12.834;2022-10-19T07:27:09;98735.84;;;12.94;70.97
22181;BME280;11256;50.830;12.834;2022-10-19T07:32:09;98745.16;;;13.03;71.21
22181;BME280;11256;50.830;12.834;2022-10-19T07:37:10;98749.53;;;13.14;70.86
22181;BME280;11256;50.830;12.834;2022-10-19T07:42:10;98745.44;;;13.16;71.35
22181;BME280;11256;50.830;12.834;2022-10-19T07:47:11;98752.25;;;13.24;71.48
22181;BME280;11256;50.830;12.834;2022-10-19T07:52:11;98750.59;;;13.28;70.86
22181;BME280;11256;50.830;12.834;2022-10-19T07:57:11;98752.81;;;13.31;70.48
22181;BME280;11256;50.830;12.834;2022-10-19T08:02:16;98759.34;;;13.35;69.98
22181;BME280;11256;50.830;12.834;2022-10-19T08:07:16;98766.69;;;13.39;70.20
22181;BME280;11256;50.830;12.834;2022-10-19T08:12:17;98759.63;;;13.38;70.63
22181;BME280;11256;50.830;12.834;2022-10-19T08:17:17;98759.63;;;13.48;70.63
22181;BME280;11256;50.830;12.834;2022-10-19T08:22:17;98766.97;;;13.58;70.88
22181;BME280;11256;50.830;12.834;2022-10-19T08:27:18;98757.13;;;13.67;70.95
22181;BME280;11256;50.830;12.834;2022-10-19T08:32:18;98762.59;;;13.77;70.54
22181;BME280;11256;50.830;12.834;2022-10-19T08:37:18;98759.84;;;13.87;69.53
22181;BME280;11256;50.830;12.834;2022-10-19T08:42:23;98764.72;;;14.05;69.87
22181;BME280;11256;50.830;12.834;2022-10-19T08:52:41;98754.03;;;14.33;67.99
22181;BME280;11256;50.830;12.834;2022-10-19T08:58:35;98751.56;;;14.37;68.34
22181;BME280;11256;50.830;12.834;2022-10-19T09:03:49;98745.28;;;14.46;68.24
22181;BME280;11256;50.830;12.834;2022-10-19T09:08:53;98741.03;;;14.74;68.18
22181;BME280;11256;50.830;12.834;2022-10-19T09:14:04;98742.19;;;15.50;69.11
22181;BME280;11256;50.830;12.834;2022-10-19T09:19:21;98729.44;;;16.21;66.85
22181;BME280;11256;50.830;12.834;2022-10-19T09:29:37;98745.91;;;17.74;63.29
22181;BME280;11256;50.830;12.834;2022-10-19T09:34:45;98750.84;;;17.58;61.32
22181;BME280;11256;50.830;12.834;2022-10-19T09:39:47;98764.56;;;17.03;60.88
22181;BME280;11256;50.830;12.834;2022-10-19T09:44:51;98750.53;;;16.67;60.85
22181;BME280;11256;50.830;12.834;2022-10-19T09:50:13;98757.44;;;16.36;61.44
22181;BME280;11256;50.830;12.834;2022-10-19T10:00:25;98759.34;;;15.84;62.34
22181;BME280;11256;50.830;12.834;2022-10-19T10:05:36;98756.25;;;15.67;62.48
22181;BME280;11256;50.830;12.834;2022-10-19T10:10:41;98757.47;;;15.51;63.01
22181;BME280;11256;50.830;12.834;2022-10-19T10:15:45;98759.50;;;15.35;63.23
22181;BME280;11256;50.830;12.834;2022-10-19T10:21:03;98766.88;;;15.30;63.90
22181;BME280;11256;50.830;12.834;2022-10-19T10:26:18;98755.78;;;15.16;64.03
22181;BME280;11256;50.830;12.834;2022-10-19T10:31:27;98753.03;;;15.16;64.02
22181;BME280;11256;50.830;12.834;2022-10-19T10:36:29;98761.00;;;15.13;63.98
22181;BME280;11256;50.830;12.834;2022-10-19T10:41:36;98751.19;;;15.12;64.20
22181;BME280;11256;50.830;12.834;2022-10-19T10:46:50;98750.69;;;15.05;64.40
22181;BME280;11256;50.830;12.834;2022-10-19T10:52:02;98756.63;;;15.12;64.33
22181;BME280;11256;50.830;12.834;2022-10-19T10:57:12;98760.97;;;15.18;64.56
22181;BME280;11256;50.830;12.834;2022-10-19T11:02:30;98756.06;;;15.20;64.66
22181;BME280;11256;50.830;12.834;2022-10-19T11:07:33;98765.50;;;15.32;64.76
22181;BME280;11256;50.830;12.834;2022-10-19T11:12:41;98754.88;;;15.31;64.55
22181;BME280;11256;50.830;12.834;2022-10-19T11:23:12;98752.03;;;15.46;64.39
22181;BME280;11256;50.830;12.834;2022-10-19T11:54:30;98716.53;;;15.46;63.51
22181;BME280;11256;50.830;12.834;2022-10-19T11:59:53;98718.19;;;15.47;63.16
22181;BME280;11256;50.830;12.834;2022-10-19T12:05:03;98713.97;;;15.54;63.24
22181;BME280;11256;50.830;12.834;2022-10-19T12:15:34;98705.00;;;15.54;62.51
22181;BME280;11256;50.830;12.834;2022-10-19T12:20:46;98706.69;;;15.45;62.58
22181;BME280;11256;50.830;12.834;2022-10-19T12:25:48;98700.25;;;15.31;61.71
22181;BME280;11256;50.830;12.834;2022-10-19T12:30:50;98692.66;;;15.23;61.37
22181;BME280;11256;50.830;12.834;2022-10-19T12:46:40;98692.13;;;15.21;62.52
22181;BME280;11256;50.830;12.834;2022-10-19T12:51:45;98687.16;;;15.28;63.16
22181;BME280;11256;50.830;12.834;2022-10-19T12:56:48;98699.63;;;15.44;63.34
22181;BME280;11256;50.830;12.834;2022-10-19T13:01:50;98689.00;;;15.32;62.98
22181;BME280;11256;50.830;12.834;2022-10-19T13:06:59;98676.75;;;15.30;62.82
22181;BME280;11256;50.830;12.834;2022-10-19T13:22:35;98678.84;;;15.09;59.97
22181;BME280;11256;50.830;12.834;2022-10-19T13:27:37;98673.66;;;15.08;60.88
22181;BME280;11256;50.830;12.834;2022-10-19T13:32:41;98678.31;;;15.07;61.99
22181;BME280;11256;50.830;12.834;2022-10-19T13:37:42;98669.34;;;15.02;62.55
22181;BME280;11256;50.830;12.834;2022-10-19T13:42:43;98664.97;;;15.01;62.15
22181;BME280;11256;50.830;12.834;2022-10-19T13:47:44;98655.16;;;15.00;62.49
22181;BME280;11256;50.830;12.834;2022-10-19T13:58:45;98682.97;;;15.02;61.26
22181;BME280;11256;50.830;12.834;2022-10-19T14:04:33;98677.06;;;15.28;62.53
22181;BME280;11256;50.830;12.834;2022-10-19T14:10:15;98662.38;;;15.19;62.52
22181;BME280;11256;50.830;12.834;2022-10-19T14:20:27;98670.03;;;15.17;62.24
22181;BME280;11256;50.830;12.834;2022-10-19T14:25:28;98658.28;;;15.17;62.41
22181;BME280;11256;50.830;12.834;2022-10-19T14:30:31;98649.28;;;15.16;62.18
22181;BME280;11256;50.830;12.834;2022-10-19T14:35:36;98648.47;;;15.16;62.10
22181;BME280;11256;50.830;12.834;2022-10-19T14:40:38;98639.69;;;15.19;62.14
22181;BME280;11256;50.830;12.834;2022-10-19T14:45:40;98634.25;;;15.19;62.32
22181;BME280;11256;50.830;12.834;2022-10-19T14:50:47;98636.16;;;15.18;62.15
22181;BME280;11256;50.830;12.834;2022-10-19T14:55:51;98634.59;;;15.12;62.05
22181;BME280;11256;50.830;12.834;2022-10-19T15:00:54;98630.56;;;15.05;62.26
22181;BME280;11256;50.830;12.834;2022-10-19T15:05:58;98631.69;;;14.99;61.82
22181;BME280;11256;50.830;12.834;2022-10-19T15:11:00;98637.13;;;15.04;62.11
22181;BME280;11256;50.830;12.834;2022-10-19T15:16:00;98633.28;;;15.05;61.97
22181;BME280;11256;50.830;12.834;2022-10-19T15:21:13;98625.16;;;14.95;62.28
22181;BME280;11256;50.830;12.834;2022-10-19T15:26:15;98627.91;;;14.95;62.06
22181;BME280;11256;50.830;12.834;2022-10-19T15:31:19;98632.28;;;14.91;62.06
22181;BME280;11256;50.830;12.834;2022-10-19T15:36:21;98625.25;;;14.85;61.97
22181;BME280;11256;50.830;12.834;2022-10-19T15:41:28;98630.50;;;14.76;62.01
22181;BME280;11256;50.830;12.834;2022-10-19T15:51:54;98617.19;;;14.65;62.11
22181;BME280;11256;50.830;12.834;2022-10-19T15:56:54;98612.91;;;14.54;62.13
22181;BME280;11256;50.830;12.834;2022-10-19T16:01:56;98609.13;;;14.50;62.20
22181;BME280;11256;50.830;12.834;2022-10-19T16:06:56;98618.16;;;14.45;62.09
22181;BME280;11256;50.830;12.834;2022-10-19T16:11:59;98622.56;;;14.41;62.04
22181;BME280;11256;50.830;12.834;2022-10-19T16:16:59;98589.66;;;14.18;62.12
22181;BME280;11256;50.830;12.834;2022-10-19T16:22:00;98618.56;;;14.24;61.98
22181;BME280;11256;50.830;12.834;2022-10-19T16:27:00;98610.13;;;14.20;62.29
22181;BME280;11256;50.830;12.834;2022-10-19T16:32:01;98612.59;;;14.12;62.29
22181;BME280;11256;50.830;12.834;2022-10-19T16:37:01;98604.47;;;14.02;62.29
22181;BME280;11256;50.830;12.834;2022-10-19T16:42:02;98621.59;;;14.02;62.46
22181;BME280;11256;50.830;12.834;2022-10-19T16:47:02;98634.19;;;13.98;62.13
22181;BME280;11256;50.830;12.834;2022-10-19T16:52:03;98618.47;;;13.75;62.16
22181;BME280;11256;50.830;12.834;2022-10-19T16:57:05;98633.47;;;13.73;62.01
22181;BME280;11256;50.830;12.834;2022-10-19T17:02:06;98629.97;;;13.52;61.44
22181;BME280;11256;50.830;12.834;2022-10-19T17:07:06;98632.16;;;13.50;62.14
22181;BME280;11256;50.830;12.834;2022-10-19T17:12:07;98633.53;;;13.48;62.29
22181;BME280;11256;50.830;12.834;2022-10-19T17:17:08;98602.81;;;13.22;62.44
22181;BME280;11256;50.830;12.834;2022-10-19T17:22:09;98642.78;;;13.42;62.43
22181;BME280;11256;50.830;12.834;2022-10-19T17:27:10;98649.34;;;13.36;62.36
22181;BME280;11256;50.830;12.834;2022-10-19T17:32:10;98641.19;;;13.26;62.36
22181;BME280;11256;50.830;12.834;2022-10-19T17:37:11;98640.66;;;13.19;62.37
22181;BME280;11256;50.830;12.834;2022-10-19T17:42:11;98643.06;;;13.20;62.54
22181;BME280;11256;50.830;12.834;2022-10-19T17:47:12;98628.41;;;13.01;62.35
22181;BME280;11256;50.830;12.834;2022-10-19T17:52:13;98640.66;;;13.04;62.37
22181;BME280;11256;50.830;12.834;2022-10-19T17:57:13;98614.50;;;12.88;62.59
22181;BME280;11256;50.830;12.834;2022-10-19T18:02:14;98636.25;;;12.88;61.92
22181;BME280;11256;50.830;12.834;2022-10-19T18:07:14;98606.31;;;12.63;62.42
22181;BME280;11256;50.830;12.834;2022-10-19T18:12:15;98624.84;;;12.71;62.42
22181;BME280;11256;50.830;12.834;2022-10-19T18:17:16;98635.44;;;12.72;62.37
22181;BME280;11256;50.830;12.834;2022-10-19T18:22:16;98637.88;;;12.64;62.50
22181;BME280;11256;50.830;12.834;2022-10-19T18:27:20;98631.88;;;12.57;62.46
22181;BME280;11256;50.830;12.834;2022-10-19T18:32:21;98625.06;;;12.49;62.14
22181;BME280;11256;50.830;12.834;2022-10-19T18:37:21;98611.16;;;12.36;62.24
22181;BME280;11256;50.830;12.834;2022-10-19T18:42:21;98614.44;;;12.33;62.25
22181;BME280;11256;50.830;12.834;2022-10-19T18:47:22;98612.81;;;12.27;62.18
22181;BME280;11256;50.830;12.834;2022-10-19T18:52:22;98618.22;;;12.22;61.85
22181;BME280;11256;50.830;12.834;2022-10-19T18:57:23;98607.84;;;12.09;62.29
22181;BME280;11256;50.830;12.834;2022-10-19T19:02:23;98601.28;;;11.95;62.08
22181;BME280;11256;50.830;12.834;2022-10-19T19:07:24;98610.53;;;11.94;62.05
22181;BME280;11256;50.830;12.834;2022-10-19T19:12:24;98606.69;;;11.85;61.76
22181;BME280;11256;50.830;12.834;2022-10-19T19:17:24;98603.91;;;11.70;61.86
22181;BME280;11256;50.830;12.834;2022-10-19T19:22:25;98591.88;;;11.56;62.20
22181;BME280;11256;50.830;12.834;2022-10-19T19:27:25;98614.09;;;11.53;61.95
22181;BME280;11256;50.830;12.834;2022-10-19T19:32:25;98617.84;;;11.42;62.19
22181;BME280;11256;50.830;12.834;2022-10-19T19:37:26;98591.91;;;11.14;61.99
22181;BME280;11256;50.830;12.834;2022-10-19T19:42:27;98613.94;;;11.23;62.20
22181;BME280;11256;50.830;12.834;2022-10-19T19:47:27;98603.00;;;11.13;62.33
22181;BME280;11256;50.830;12.834;2022-10-19T19:52:27;98603.44;;;11.00;62.16
22181;BME280;11256;50.830;12.834;2022-10-19T19:57:28;98623.00;;;11.02;62.14
22181;BME280;11256;50.830;12.834;2022-10-19T20:02:28;98624.84;;;10.96;61.98
22181;BME280;11256;50.830;12.834;2022-10-19T20:07:31;98626.44;;;10.87;61.98
22181;BME280;11256;50.830;12.834;2022-10-19T20:12:32;98630.38;;;10.75;62.02
22181;BME280;11256;50.830;12.834;2022-10-19T20:17:32;98629.19;;;10.66;62.31
22181;BME280;11256;50.830;12.834;2022-10-19T20:22:33;98628.84;;;10.57;62.30
22181;BME280;11256;50.830;12.834;2022-10-19T20:27:34;98606.19;;;10.37;62.33
22181;BME280;11256;50.830;12.834;2022-10-19T20:32:34;98602.81;;;10.25;62.33
22181;BME280;11256;50.830;12.834;2022-10-19T20:37:35;98617.16;;;10.25;62.23
22181;BME280;11256;50.830;12.834;2022-10-19T20:42:35;98620.81;;;10.14;62.51
22181;BME280;11256;50.830;12.834;2022-10-19T20:47:36;98604.22;;;10.06;62.43
22181;BME280;11256;50.830;12.834;2022-10-19T20:52:36;98608.47;;;10.02;62.48
22181;BME280;11256;50.830;12.834;2022-10-19T20:57:37;98605.16;;;9.95;62.64
22181;BME280;11256;50.830;12.834;2022-10-19T21:02:37;98595.53;;;9.82;62.69
22181;BME280;11256;50.830;12.834;2022-10-19T21:07:38;98596.03;;;9.79;62.67
22181;BME280;11256;50.830;12.834;2022-10-19T21:12:38;98579.38;;;9.66;62.85
22181;BME280;11256;50.830;12.834;2022-10-19T21:17:38;98579.84;;;9.63;62.53
22181;BME280;11256;50.830;12.834;2022-10-19T21:22:39;98584.09;;;9.54;62.96
22181;BME280;11256;50.830;12.834;2022-10-19T21:27:40;98562.56;;;9.42;62.62
22181;BME280;11256;50.830;12.834;2022-10-19T21:32:40;98572.06;;;9.45;62.70
22181;BME280;11256;50.830;12.834;2022-10-19T21:37:41;98568.66;;;9.33;63.01
22181;BME280;11256;50.830;12.834;2022-10-19T21:42:41;98566.44;;;9.30;63.08
22181;BME280;11256;50.830;12.834;2022-10-19T21:47:41;98568.53;;;9.23;62.89
22181;BME280;11256;50.830;12.834;2022-10-19T21:52:42;98569.53;;;9.17;62.55
22181;BME280;11256;50.830;12.834;2022-10-19T21:57:42;98555.00;;;9.01;62.95
22181;BME280;11256;50.830;12.834;2022-10-19T22:02:42;98547.44;;;9.03;62.81
22181;BME280;11256;50.830;12.834;2022-10-19T22:07:43;98539.44;;;8.92;63.04
22181;BME280;11256;50.830;12.834;2022-10-19T22:12:43;98552.88;;;8.87;62.99
22181;BME280;11256;50.830;12.834;2022-10-19T22:17:43;98553.06;;;8.80;63.00
22181;BME280;11256;50.830;12.834;2022-10-19T22:22:44;98539.16;;;8.72;63.15
22181;BME280;11256;50.830;12.834;2022-10-19T22:27:44;98535.22;;;8.63;63.39
22181;BME280;11256;50.830;12.834;2022-10-19T22:32:45;98507.41;;;8.46;63.36
22181;BME280;11256;50.830;12.834;2022-10-19T22:37:45;98514.28;;;8.53;63.57
22181;BME280;11256;50.830;12.834;2022-10-19T22:42:45;98506.09;;;8.48;63.17
22181;BME280;11256;50.830;12.834;2022-10-19T22:47:46;98504.09;;;8.44;63.33
22181;BME280;11256;50.830;12.834;2022-10-19T22:52:46;98499.22;;;8.41;63.48
22181;BME280;11256;50.830;12.834;2022-10-19T22:57:46;98485.00;;;8.29;63.38
22181;BME280;11256;50.830;12.834;2022-10-19T23:02:47;98489.09;;;8.31;63.58
22181;BME280;11256;50.830;12.834;2022-10-19T23:07:47;98486.63;;;8.30;63.57
22181;BME280;11256;50.830;12.834;2022-10-19T23:12:51;98474.47;;;8.16;63.29
22181;BME280;11256;50.830;12.834;2022-10-19T23:17:52;98471.13;;;8.09;63.52
22181;BME280;11256;50.830;12.834;2022-10-19T23:22:53;98474.81;;;8.03;63.71
22181;BME280;11256;50.830;12.834;2022-10-19T23:27:53;98465.00;;;7.97;63.51
22181;BME280;11256;50.830;12.834;2022-10-19T23:32:53;98482.81;;;7.98;63.40
22181;BME280;11256;50.830;12.834;2022-10-19T23:37:54;98467.03;;;7.90;63.82
22181;BME280;11256;50.830;12.834;2022-10-19T23:42:54;98467.50;;;7.87;63.59
22181;BME280;11256;50.830;12.834;2022-10-19T23:47:54;98448.44;;;7.77;63.52
22181;BME280;11256;50.830;12.834;2022-10-19T23:52:55;98448.34;;;7.72;63.60
22181;BME280;11256;50.830;12.834;2022-10-19T23:57:55;98419.28;;;7.46;64.00
